TimePST,TemperatureF,Dew PointF,Humidity,Sea Level PressureIn,VisibilityMPH,Wind Direction,Wind SpeedMPH,Gust SpeedMPH,PrecipitationIn,Events,Conditions,WindDirDegrees,DateUTC
12:24 AM,39.2,37.4,93,30.33,5.0,Calm,Calm,-,N/A,,Overcast,0,2013-02-11 08:24:00
12:53 AM,39.9,37.9,93,30.36,5.0,Calm,Calm,-,N/A,,Overcast,0,2013-02-11 08:53:00
1:45 AM,39.2,39.2,100,30.34,3.0,Calm,Calm,-,0.00,,Overcast,0,2013-02-11 09:45:00
1:53 AM,39.9,39.0,97,30.36,3.0,Calm,Calm,-,0.00,,Overcast,0,2013-02-11 09:53:00
2:01 AM,39.2,37.4,93,30.33,2.5,Calm,Calm,-,N/A,,Overcast,0,2013-02-11 10:01:00
2:51 AM,39.2,39.2,100,30.33,3.0,Calm,Calm,-,N/A,,Overcast,0,2013-02-11 10:51:00
2:53 AM,39.0,39.0,100,30.36,3.0,Calm,Calm,-,N/A,,Overcast,0,2013-02-11 10:53:00
3:22 AM,39.2,37.4,93,30.33,2.5,Calm,Calm,-,N/A,,Overcast,0,2013-02-11 11:22:00
3:30 AM,39.2,37.4,93,30.32,3.0,Calm,Calm,-,N/A,,Overcast,0,2013-02-11 11:30:00
3:53 AM,39.9,37.9,93,30.35,4.0,Calm,Calm,-,N/A,,Overcast,0,2013-02-11 11:53:00
4:53 AM,39.9,37.9,93,30.34,9.0,Calm,Calm,-,N/A,,Overcast,0,2013-02-11 12:53:00
5:43 AM,39.2,37.4,93,30.32,8.0,Calm,Calm,-,N/A,,Overcast,0,2013-02-11 13:43:00
5:53 AM,39.9,37.9,93,30.35,8.0,Calm,Calm,-,N/A,,Overcast,0,2013-02-11 13:53:00
6:53 AM,39.9,39.0,97,30.34,3.0,SE,4.6,-,N/A,,Overcast,130,2013-02-11 14:53:00
7:36 AM,39.2,39.2,100,30.31,2.5,Calm,Calm,-,0.01,,Overcast,0,2013-02-11 15:36:00
7:53 AM,39.9,39.0,97,30.35,2.0,Calm,Calm,-,0.01,,Overcast,0,2013-02-11 15:53:00
8:15 AM,39.2,39.2,100,30.32,1.2,Calm,Calm,-,0.01,Rain,Light Rain,0,2013-02-11 16:15:00
8:51 AM,41.0,39.2,93,30.32,2.0,SE,4.6,-,0.02,,Overcast,140,2013-02-11 16:51:00
8:53 AM,41.0,39.9,96,30.35,1.8,SE,4.6,-,0.03,,Overcast,130,2013-02-11 16:53:00
9:04 AM,41.0,39.2,93,30.32,2.0,SE,3.5,-,N/A,,Overcast,140,2013-02-11 17:04:00
9:51 AM,41.0,39.2,93,30.33,4.0,SE,6.9,-,N/A,,Overcast,130,2013-02-11 17:51:00
9:53 AM,42.1,39.0,89,30.36,4.0,SSE,6.9,-,N/A,,Overcast,150,2013-02-11 17:53:00
10:33 AM,42.8,39.2,87,30.33,2.5,SE,9.2,-,0.00,Rain,Light Rain,140,2013-02-11 18:33:00
10:48 AM,42.8,39.2,87,30.33,1.0,SE,9.2,-,0.01,,Overcast,140,2013-02-11 18:48:00
10:53 AM,42.1,39.9,92,30.36,1.0,SSE,9.2,-,0.01,,Overcast,150,2013-02-11 18:53:00
11:08 AM,42.8,39.2,87,30.33,2.5,SSE,10.4,-,N/A,,Overcast,150,2013-02-11 19:08:00
11:18 AM,42.8,39.2,87,30.33,5.0,SSE,9.2,-,N/A,,Overcast,150,2013-02-11 19:18:00
11:33 AM,42.8,39.2,87,30.33,10.0,SSE,6.9,-,N/A,,Overcast,150,2013-02-11 19:33:00
11:53 AM,43.0,39.0,86,30.36,10.0,SSE,10.4,-,N/A,,Overcast,160,2013-02-11 19:53:00
12:08 PM,42.8,39.2,87,30.32,10.0,SSE,12.7,-,N/A,,Overcast,160,2013-02-11 20:08:00
12:24 PM,44.6,39.2,81,30.32,10.0,SSE,6.9,-,N/A,,Overcast,160,2013-02-11 20:24:00
12:53 PM,44.1,39.0,82,30.35,10.0,SSE,9.2,-,N/A,,Overcast,160,2013-02-11 20:53:00
1:53 PM,44.1,37.9,79,30.35,10.0,South,10.4,-,N/A,,Overcast,170,2013-02-11 21:53:00
2:53 PM,44.1,37.9,79,30.35,10.0,South,6.9,-,N/A,,Overcast,180,2013-02-11 22:53:00
3:53 PM,44.1,37.9,79,30.35,10.0,SSE,8.1,-,N/A,,Overcast,150,2013-02-11 23:53:00
4:29 PM,44.6,39.2,81,30.32,10.0,South,5.8,-,N/A,,Overcast,170,2013-02-12 00:29:00
4:53 PM,44.1,39.0,82,30.35,10.0,SSE,4.6,-,N/A,,Overcast,160,2013-02-12 00:53:00
5:53 PM,44.1,39.0,82,30.35,10.0,SSE,4.6,-,N/A,,Overcast,150,2013-02-12 01:53:00
6:53 PM,43.0,39.0,86,30.35,10.0,SSE,5.8,-,N/A,,Overcast,150,2013-02-12 02:53:00
7:53 PM,43.0,39.9,89,30.35,10.0,SSE,3.5,-,N/A,,Overcast,150,2013-02-12 03:53:00
8:53 PM,43.0,39.9,89,30.35,10.0,South,4.6,-,N/A,,Overcast,170,2013-02-12 04:53:00
9:53 PM,43.0,39.9,89,30.35,9.0,Calm,Calm,-,N/A,,Overcast,0,2013-02-12 05:53:00
10:28 PM,42.8,41.0,93,30.33,4.0,South,4.6,-,N/A,,Overcast,170,2013-02-12 06:28:00
10:53 PM,43.0,41.0,93,30.35,7.0,SE,4.6,-,N/A,,Overcast,130,2013-02-12 06:53:00
11:26 PM,42.8,41.0,93,30.33,10.0,South,3.5,-,N/A,,Overcast,170,2013-02-12 07:26:00
11:53 PM,44.1,41.0,89,30.35,10.0,SSE,6.9,-,N/A,,Overcast,160,2013-02-12 07:53:00